This is the latest recevied weather packets stored in our database for station/object GW1544. If no packets are shown the sender has not sent any weather packets the latest 10 day(s).
| Time | Temp. | Humidity | Pressure | Rain* | Wind** | Luminosity | Snow |
|---|---|---|---|---|---|---|---|
| 1777448568 | 16.67° C | 99% | 1017.9 hPa | 1.78 mm | - | - | - |
| 1777448179 | 16.67° C | 98% | 1017.9 hPa | 1.78 mm | - | - | - |
| 1777445669 | 16.67° C | 98% | 1017.9 hPa | 1.78 mm | - | - | - |
| 1777445331 | 16.67° C | 98% | 1018.2 hPa | 1.78 mm | - | - | - |
| 1777443879 | 16.67° C | 98% | 1018.6 hPa | 0 mm | - | - | - |
| 1777442072 | 16.67° C | 97% | 1018.6 hPa | 0 mm | - | - | - |
| 1777441332 | 16.67° C | 97% | 1018.6 hPa | 0 mm | - | - | - |
| 1777438126 | 16.67° C | 95% | 1018.9 hPa | 0 mm | - | - | - |
| 1777436667 | 17.22° C | 95% | 1019.3 hPa | 0 mm | - | - | - |
| 1777433447 | 17.78° C | 91% | 1020.3 hPa | 9.65 mm | - | - | - |
| 1777431256 | 18.33° C | 89% | 1020.3 hPa | 9.65 mm | - | - | - |
| 1777430213 | 18.89° C | 87% | 1020.6 hPa | 9.65 mm | - | - | - |
| 1777428393 | 17.78° C | 91% | 1020.9 hPa | 9.65 mm | - | - | - |
| 1777421909 | 19.44° C | 85% | 1019.6 hPa | 9.65 mm | - | - | - |
| 1777420098 | 21.67° C | 78% | 1020.3 hPa | 9.65 mm | - | - | - |
| 1777418667 | 23.33° C | 67% | 1019.9 hPa | 9.65 mm | - | - | - |
| 1777417608 | 22.78° C | 70% | 1019.6 hPa | 9.65 mm | - | - | - |
| 1777417237 | 21.67° C | 74% | 1019.3 hPa | 9.65 mm | - | - | - |
| 1777406074 | 25.56° C | 62% | 1020.9 hPa | 9.65 mm | - | - | - |
| 1777400331 | 22.78° C | 76% | 1022 hPa | 9.65 mm | - | - | - |
| 1777399601 | 22.78° C | 77% | 1022.3 hPa | 9.65 mm | - | - | - |
| 1777398136 | 21.67° C | 83% | 1022.3 hPa | 9.65 mm | - | - | - |
| 1777395648 | 21.11° C | 82% | 1022.3 hPa | 9.65 mm | - | - | - |
| 1777394924 | 21.11° C | 82% | 1022.3 hPa | 9.65 mm | - | - | - |
| 1777394204 | 20.56° C | 83% | 1022.3 hPa | 9.65 mm | - | - | - |
* Rain since midnight (hover to see other rain measurements)
** Current wind speed in m/s (hover to see current wind gust speed)